Time;durP1;ratioP1;P1;durP2;ratioP2;P2;SDS_P1;SDS_P2;PMS_P1;PMS_P2;Temp;Humidity;BMP_temperature;BMP_pressure;BME280_temperature;BME280_humidity;BME280_pressure;Samples;Min_cycle;Max_cycle;Signal;HPM_P1;HPM_P2
2024/03/01 00:00:16;;;;;;;5.30;2.55;;;10.30;99.90;;;;;;7403343;19;19911;-79
2024/03/01 00:02:44;;;;;;;4.35;2.30;;;10.30;99.90;;;;;;7388679;19;20035;-78
2024/03/01 00:05:13;;;;;;;7.45;2.20;;;10.40;99.90;;;;;;7385906;19;20228;-78
2024/03/01 00:07:42;;;;;;;7.07;2.80;;;10.20;99.90;;;;;;7382618;19;20006;-78
2024/03/01 00:10:12;;;;;;;4.93;2.28;;;10.20;99.90;;;;;;7393725;19;20010;-78
2024/03/01 00:12:43;;;;;;;3.38;1.85;;;10.10;99.90;;;;;;7415938;19;20011;-79
2024/03/01 00:15:11;;;;;;;;;;;10.30;99.90;;;;;;7389509;19;20062;-78
2024/03/01 00:17:40;;;;;;;4.15;2.42;;;10.40;99.90;;;;;;7387322;19;20199;-78
2024/03/01 00:20:12;;;;;;;5.20;2.22;;;10.20;99.90;;;;;;7384983;19;20014;-78
2024/03/01 00:22:41;;;;;;;6.85;2.00;;;10.20;99.90;;;;;;7384634;19;20007;-80
2024/03/01 00:25:12;;;;;;;5.13;1.77;;;10.00;99.90;;;;;;7405769;19;20010;-79
2024/03/01 00:27:44;;;;;;;5.15;1.92;;;10.10;99.90;;;;;;7408933;19;20059;-78
2024/03/01 00:30:13;;;;;;;4.45;1.50;;;10.10;99.90;;;;;;7384920;19;19999;-78
2024/03/01 00:32:42;;;;;;;11.35;1.67;;;10.20;99.90;;;;;;7383717;19;20003;-78
2024/03/01 00:35:11;;;;;;;6.70;1.65;;;10.10;99.90;;;;;;7384861;19;20019;-78
2024/03/01 00:37:40;;;;;;;10.30;1.73;;;10.10;99.90;;;;;;7384588;19;20104;-79
2024/03/01 00:40:10;;;;;;;3.22;1.63;;;10.20;99.90;;;;;;7408557;19;20030;-78
2024/03/01 00:42:43;;;;;;;2.78;1.50;;;10.10;99.90;;;;;;7404085;19;20415;-79
2024/03/01 00:45:12;;;;;;;3.67;1.65;;;10.10;99.90;;;;;;7384110;19;20023;-78
2024/03/01 00:47:46;;;;;;;4.82;1.38;;;10.30;99.90;;;;;;7381477;19;20007;-79
2024/03/01 00:50:15;;;;;;;9.10;1.40;;;10.30;99.90;;;;;;7381859;19;20245;-78
2024/03/01 00:52:44;;;;;;;5.00;1.95;;;10.50;99.90;;;;;;7382090;19;20087;-80
2024/03/01 00:55:13;;;;;;;10.52;1.67;;;10.70;99.90;;;;;;7380746;19;20101;-79
2024/03/01 00:57:44;;;;;;;3.17;1.38;;;10.80;99.90;;;;;;7405956;19;20042;-78
2024/03/01 01:00:14;;;;;;;3.63;1.48;;;10.80;99.90;;;;;;7381719;19;20380;-78
2024/03/01 01:02:43;;;;;;;6.28;1.48;;;10.80;99.90;;;;;;7383752;19;20015;-77
2024/03/01 01:05:12;;;;;;;1.27;1.10;;;10.90;99.90;;;;;;7384133;19;20027;-78
2024/03/01 01:07:40;;;;;;;5.82;1.48;;;10.90;99.90;;;;;;7387743;19;20010;-78
2024/03/01 01:10:10;;;;;;;5.90;1.50;;;10.80;99.90;;;;;;7407206;19;20007;-78
2024/03/01 01:12:40;;;;;;;2.22;1.00;;;10.90;99.90;;;;;;7383370;19;20036;-78
2024/03/01 01:15:12;;;;;;;6.32;1.50;;;10.90;99.90;;;;;;7384880;19;20063;-78
2024/03/01 01:17:41;;;;;;;4.68;1.30;;;10.90;99.90;;;;;;7389812;19;20010;-78
2024/03/01 01:20:10;;;;;;;8.90;1.63;;;10.90;99.90;;;;;;7397977;19;20010;-78
2024/03/01 01:22:39;;;;;;;5.40;1.30;;;11.00;99.90;;;;;;7386200;19;20015;-78
2024/03/01 01:25:09;;;;;;;7.47;1.45;;;10.90;99.90;;;;;;7402296;19;20317;-77
2024/03/01 01:27:37;;;;;;;4.55;1.58;;;10.90;99.90;;;;;;7383887;19;20006;-78
2024/03/01 01:30:07;;;;;;;4.53;1.33;;;10.90;99.90;;;;;;7382658;19;20006;-78
2024/03/01 01:32:38;;;;;;;5.72;1.38;;;10.90;99.90;;;;;;7381336;19;20019;-78
2024/03/01 01:35:08;;;;;;;4.05;0.88;;;10.90;99.90;;;;;;7382801;19;20034;-80
2024/03/01 01:37:37;;;;;;;4.82;1.70;;;10.90;99.90;;;;;;7381750;19;20664;-78
2024/03/01 01:40:06;;;;;;;3.47;1.27;;;10.90;99.90;;;;;;7404188;19;20010;-78
2024/03/01 01:42:35;;;;;;;4.95;1.38;;;11.00;99.90;;;;;;7380046;19;20070;-78
2024/03/01 01:45:04;;;;;;;11.98;1.50;;;11.00;99.90;;;;;;7382375;19;20030;-78
2024/03/01 01:47:33;;;;;;;11.18;1.58;;;11.10;99.90;;;;;;7379578;19;20034;-80
2024/03/01 01:50:05;;;;;;;6.57;1.33;;;11.10;99.90;;;;;;7380135;19;20011;-77
2024/03/01 01:52:34;;;;;;;8.15;1.25;;;11.10;99.90;;;;;;7378838;19;20010;-78
2024/03/01 01:55:03;;;;;;;5.65;1.70;;;11.20;99.90;;;;;;7402757;19;20034;-78
2024/03/01 01:57:32;;;;;;;6.90;1.73;;;11.10;99.90;;;;;;7380500;19;20030;-78
2024/03/01 02:00:03;;;;;;;4.20;1.35;;;11.10;99.90;;;;;;7384776;19;20007;-79
2024/03/01 02:02:32;;;;;;;;;;;11.10;99.90;;;;;;7385657;19;20003;-78
2024/03/01 02:05:03;;;;;;;4.25;1.15;;;11.20;99.90;;;;;;7385224;19;20207;-78
2024/03/01 02:07:34;;;;;;;2.10;1.17;;;11.10;99.90;;;;;;7380601;19;20358;-77
2024/03/01 02:10:09;;;;;;;5.30;1.77;;;11.10;99.90;;;;;;7404708;19;20010;-78
2024/03/01 02:12:38;;;;;;;3.72;1.52;;;11.00;99.90;;;;;;7383925;19;20010;-77
2024/03/01 02:15:08;;;;;;;4.55;1.58;;;11.00;99.90;;;;;;7383902;19;20278;-79
2024/03/01 02:17:37;;;;;;;9.43;2.33;;;11.00;99.90;;;;;;7381805;19;20007;-78
2024/03/01 02:20:10;;;;;;;5.95;1.92;;;10.90;99.90;;;;;;7380203;19;20007;-78
2024/03/01 02:22:42;;;;;;;6.25;2.05;;;10.90;99.90;;;;;;7381226;19;20011;-77
2024/03/01 02:25:13;;;;;;;5.65;1.98;;;10.90;99.90;;;;;;7401677;19;20006;-78
2024/03/01 02:27:41;;;;;;;;;;;10.90;99.90;;;;;;7380955;19;20028;-79
2024/03/01 02:30:11;;;;;;;4.20;2.15;;;10.90;99.90;;;;;;7379582;19;19911;-79
2024/03/01 02:32:40;;;;;;;15.05;2.40;;;10.90;99.90;;;;;;7379396;19;20013;-79
2024/03/01 02:35:09;;;;;;;4.78;2.20;;;10.90;99.90;;;;;;7382050;19;20263;-80
2024/03/01 02:37:38;;;;;;;8.48;2.30;;;10.80;99.90;;;;;;7380707;19;20041;-78
2024/03/01 02:40:09;;;;;;;7.93;2.15;;;10.80;99.90;;;;;;7406231;19;20353;-79
2024/03/01 02:42:40;;;;;;;3.83;1.63;;;10.80;99.90;;;;;;7383292;19;20074;-80
2024/03/01 02:45:10;;;;;;;6.03;2.08;;;10.80;99.90;;;;;;7392045;19;20695;-79
2024/03/01 02:47:39;;;;;;;8.40;1.90;;;10.70;99.90;;;;;;7400424;19;20009;-78
2024/03/01 02:50:10;;;;;;;5.28;1.88;;;10.70;99.90;;;;;;7400685;19;20008;-78
2024/03/01 02:52:40;;;;;;;5.88;2.35;;;10.60;99.90;;;;;;7402224;19;20003;-79
2024/03/01 02:55:10;;;;;;;5.60;1.83;;;10.70;99.90;;;;;;7423528;19;20018;-78
2024/03/01 02:57:41;;;;;;;6.70;2.08;;;10.60;99.90;;;;;;7398996;19;20021;-79
2024/03/01 03:00:14;;;;;;;4.15;1.70;;;10.60;99.90;;;;;;7382753;19;20010;-80
2024/03/01 03:02:42;;;;;;;4.97;1.73;;;10.60;99.90;;;;;;7379109;19;20032;-79
2024/03/01 03:05:11;;;;;;;4.20;1.60;;;10.60;99.90;;;;;;7380259;19;20392;-79
2024/03/01 03:07:40;;;;;;;10.68;2.08;;;10.60;99.90;;;;;;7384303;19;20060;-78
2024/03/01 03:10:09;;;;;;;5.38;2.20;;;10.60;99.90;;;;;;7410205;19;20034;-78
2024/03/01 03:12:41;;;;;;;4.57;1.50;;;10.50;99.90;;;;;;7390160;19;20027;-78
2024/03/01 03:15:11;;;;;;;4.43;1.80;;;10.50;99.90;;;;;;7384582;19;20389;-78
2024/03/01 03:17:40;;;;;;;7.93;1.90;;;10.50;99.90;;;;;;7386574;19;20085;-79
2024/03/01 03:20:12;;;;;;;7.50;1.63;;;10.40;99.90;;;;;;7386178;19;20066;-78
2024/03/01 03:22:41;;;;;;;7.68;1.63;;;10.50;99.90;;;;;;7390172;19;20094;-78
2024/03/01 03:25:12;;;;;;;4.88;1.67;;;10.40;99.90;;;;;;7407216;19;20266;-77
2024/03/01 03:27:43;;;;;;;4.03;1.93;;;10.40;99.90;;;;;;7386391;19;20030;-78
2024/03/01 03:30:12;;;;;;;;;;;10.40;99.90;;;;;;7388495;19;20038;-78
2024/03/01 03:32:41;;;;;;;11.20;2.10;;;10.40;99.90;;;;;;7385612;19;19911;-78
2024/03/01 03:35:10;;;;;;;4.63;1.63;;;10.30;99.90;;;;;;7384244;19;20023;-77
2024/03/01 03:37:39;;;;;;;7.35;2.00;;;10.40;99.90;;;;;;7382119;19;20019;-79
2024/03/01 03:40:14;;;;;;;5.00;1.75;;;10.30;99.90;;;;;;7408275;19;20277;-79
2024/03/01 03:42:46;;;;;;;9.10;1.52;;;10.30;99.90;;;;;;7384431;19;20010;-79
2024/03/01 03:45:15;;;;;;;4.88;1.63;;;10.30;99.90;;;;;;7387987;19;20372;-78
2024/03/01 03:47:43;;;;;;;10.15;1.88;;;10.30;99.90;;;;;;7391157;19;20006;-79
2024/03/01 03:50:12;;;;;;;7.72;1.38;;;10.20;99.90;;;;;;7388195;19;20025;-78
2024/03/01 03:52:41;;;;;;;4.90;1.50;;;10.20;99.90;;;;;;7389857;19;20095;-78
2024/03/01 03:55:10;;;;;;;3.17;1.20;;;10.30;99.90;;;;;;7409374;19;20010;-77
2024/03/01 03:57:39;;;;;;;10.35;1.80;;;10.00;99.90;;;;;;7386810;19;20062;-77
2024/03/01 04:00:15;;;;;;;3.33;1.25;;;10.10;99.90;;;;;;7383667;19;20015;-78
2024/03/01 04:02:44;;;;;;;6.55;1.70;;;10.10;99.90;;;;;;7387467;19;20314;-77
2024/03/01 04:05:13;;;;;;;12.25;1.65;;;10.20;99.90;;;;;;7386637;19;20007;-77
2024/03/01 04:07:42;;;;;;;3.42;1.35;;;10.30;99.90;;;;;;7382873;19;20386;-77
2024/03/01 04:10:12;;;;;;;9.23;1.48;;;10.20;99.90;;;;;;7401335;19;20011;-77
2024/03/01 04:12:41;;;;;;;6.80;1.60;;;10.20;99.90;;;;;;7381222;19;20006;-78
2024/03/01 04:15:12;;;;;;;8.63;2.28;;;10.20;99.90;;;;;;7382821;19;20369;-78
2024/03/01 04:17:41;;;;;;;;;;;10.20;99.90;;;;;;7381595;19;20009;-78
2024/03/01 04:20:10;;;;;;;3.90;1.40;;;10.20;99.90;;;;;;7379866;19;20043;-78
2024/03/01 04:22:39;;;;;;;14.48;1.90;;;10.20;99.90;;;;;;7381518;19;20024;-78
2024/03/01 04:25:09;;;;;;;12.75;1.65;;;10.20;99.90;;;;;;7404130;19;20023;-77
2024/03/01 04:27:39;;;;;;;8.07;1.92;;;10.20;99.90;;;;;;7381123;19;20006;-77
2024/03/01 04:30:09;;;;;;;6.00;1.33;;;10.10;99.90;;;;;;7382838;19;20003;-79
2024/03/01 04:32:40;;;;;;;6.78;1.42;;;10.10;99.90;;;;;;7383449;19;20009;-77
2024/03/01 04:35:09;;;;;;;6.00;1.63;;;10.10;99.90;;;;;;7383955;19;20108;-78
2024/03/01 04:37:38;;;;;;;4.47;1.95;;;10.20;99.90;;;;;;7381218;19;20011;-78
2024/03/01 04:40:08;;;;;;;7.32;1.48;;;10.20;99.90;;;;;;7406354;19;20025;-78
2024/03/01 04:42:41;;;;;;;5.32;1.38;;;10.20;99.90;;;;;;7386031;19;20010;-78
2024/03/01 04:45:10;;;;;;;6.00;1.17;;;10.20;99.90;;;;;;7385332;19;20003;-78
2024/03/01 04:47:44;;;;;;;12.73;1.90;;;10.20;99.90;;;;;;7381347;19;20019;-78
2024/03/01 04:50:12;;;;;;;6.13;1.60;;;10.20;99.90;;;;;;7383403;19;20010;-79
2024/03/01 04:52:41;;;;;;;5.93;2.13;;;10.30;99.90;;;;;;7379914;19;20030;-78
2024/03/01 04:55:10;;;;;;;12.63;2.42;;;10.40;99.90;;;;;;7407742;19;20023;-78
2024/03/01 04:57:40;;;;;;;5.28;1.98;;;10.30;99.90;;;;;;7385472;19;20002;-78
2024/03/01 05:00:12;;;;;;;5.80;1.90;;;10.30;99.90;;;;;;7382877;19;19998;-77
2024/03/01 05:02:46;;;;;;;7.63;1.88;;;10.40;99.90;;;;;;7381138;19;20007;-78
2024/03/01 05:05:18;;;;;;;12.20;1.85;;;10.40;99.90;;;;;;7379349;19;20345;-78
2024/03/01 05:07:48;;;;;;;4.75;1.65;;;10.40;99.90;;;;;;7379354;19;21898;-79
2024/03/01 05:10:21;;;;;;;8.98;2.00;;;10.40;99.90;;;;;;7400309;19;20034;-77
2024/03/01 05:12:51;;;;;;;8.05;1.52;;;10.40;99.90;;;;;;7383174;19;19999;-78
2024/03/01 05:15:20;;;;;;;6.78;2.00;;;10.40;99.90;;;;;;7379759;19;20020;-77
2024/03/01 05:17:52;;;;;;;10.63;2.15;;;10.30;99.90;;;;;;7379878;19;20078;-78
2024/03/01 05:20:21;;;;;;;4.93;1.88;;;10.30;99.90;;;;;;7378326;19;20054;-78
2024/03/01 05:22:50;;;;;;;11.93;2.30;;;10.30;99.90;;;;;;7380259;19;20018;-78
2024/03/01 05:25:19;;;;;;;6.82;1.88;;;10.30;99.90;;;;;;7402514;19;20018;-78
2024/03/01 05:27:49;;;;;;;6.88;1.60;;;10.30;99.90;;;;;;7379364;19;20003;-77
2024/03/01 05:30:20;;;;;;;3.97;1.88;;;10.00;99.90;;;;;;7381998;19;20006;-78
2024/03/01 05:32:56;;;;;;;8.45;1.63;;;9.90;99.90;;;;;;7384273;19;20007;-78
2024/03/01 05:35:25;;;;;;;4.78;1.50;;;9.80;99.90;;;;;;7390291;19;20006;-78
2024/03/01 05:37:56;;;;;;;12.73;2.20;;;9.90;99.90;;;;;;7397302;19;20014;-77
2024/03/01 05:40:25;;;;;;;9.60;2.20;;;9.90;99.90;;;;;;7419259;19;20014;-77
2024/03/01 05:42:54;;;;;;;5.28;1.80;;;10.00;99.90;;;;;;7396673;19;20317;-77
2024/03/01 05:45:22;;;;;;;8.70;2.13;;;10.00;99.90;;;;;;7395035;19;20746;-77
2024/03/01 05:47:54;;;;;;;8.02;1.80;;;10.10;99.90;;;;;;7392009;19;20023;-78
2024/03/01 05:50:24;;;;;;;12.20;1.95;;;10.00;99.90;;;;;;7390412;19;20003;-78
2024/03/01 05:52:52;;;;;;;9.82;2.60;;;10.00;99.90;;;;;;7385242;19;20014;-77
2024/03/01 05:55:23;;;;;;;8.15;1.95;;;10.00;99.90;;;;;;7407845;19;20028;-78
2024/03/01 05:57:52;;;;;;;14.15;2.30;;;10.10;99.90;;;;;;7380911;19;20074;-78
2024/03/01 06:00:25;;;;;;;13.73;2.28;;;9.90;99.90;;;;;;7377324;19;20303;-77
2024/03/01 06:02:56;;;;;;;16.15;2.53;;;10.00;99.90;;;;;;7381445;19;20283;-76
2024/03/01 06:05:24;;;;;;;5.18;2.13;;;10.00;99.90;;;;;;7379159;19;20003;-77
2024/03/01 06:07:53;;;;;;;11.68;2.40;;;10.00;99.90;;;;;;7379400;19;20014;-77
2024/03/01 06:10:22;;;;;;;9.18;2.20;;;10.00;99.90;;;;;;7400374;19;20026;-77
2024/03/01 06:12:51;;;;;;;13.18;2.53;;;9.90;99.90;;;;;;7379619;19;20010;-78
2024/03/01 06:15:20;;;;;;;11.60;2.85;;;9.90;99.90;;;;;;7378677;19;20612;-75
2024/03/01 06:17:49;;;;;;;10.82;2.40;;;9.90;99.90;;;;;;7381086;19;20369;-79
2024/03/01 06:20:20;;;;;;;12.13;2.55;;;9.90;99.90;;;;;;7380105;19;20418;-77
2024/03/01 06:22:51;;;;;;;;;;;9.90;99.90;;;;;;7379628;19;20676;-78
2024/03/01 06:25:20;;;;;;;13.63;4.88;;;9.90;99.90;;;;;;7400960;19;19971;-77
2024/03/01 06:27:49;;;;;;;10.20;2.70;;;9.90;99.90;;;;;;7381262;19;20074;-77
2024/03/01 06:30:18;;;;;;;7.75;2.38;;;9.80;99.90;;;;;;7379312;19;20007;-77
2024/03/01 06:32:47;;;;;;;4.85;2.17;;;9.80;99.90;;;;;;7376977;19;20034;-77
2024/03/01 06:35:15;;;;;;;11.18;2.13;;;9.80;99.90;;;;;;7376699;19;20083;-76
2024/03/01 06:37:47;;;;;;;13.77;2.65;;;9.80;99.90;;;;;;7379382;19;20251;-76
2024/03/01 06:40:16;;;;;;;9.68;2.28;;;9.80;99.90;;;;;;7398522;19;20017;-76
2024/03/01 06:42:44;;;;;;;13.73;3.13;;;9.80;99.90;;;;;;7382416;19;20034;-77
2024/03/01 06:45:13;;;;;;;14.02;2.28;;;9.80;99.90;;;;;;7383905;19;20046;-77
2024/03/01 06:47:42;;;;;;;14.68;3.45;;;9.70;99.90;;;;;;7385439;19;20010;-76
2024/03/01 06:50:12;;;;;;;11.27;2.72;;;9.80;99.90;;;;;;7387198;19;20386;-76
2024/03/01 06:52:40;;;;;;;11.32;2.75;;;9.80;99.90;;;;;;7384002;19;20321;-78
2024/03/01 06:55:12;;;;;;;9.10;2.90;;;9.70;99.90;;;;;;7407502;19;20014;-76
2024/03/01 06:57:40;;;;;;;12.13;3.00;;;9.70;99.90;;;;;;7385863;19;20070;-76
2024/03/01 07:00:12;;;;;;;15.85;3.17;;;9.70;99.90;;;;;;7385905;19;20066;-77
2024/03/01 07:02:41;;;;;;;;;;;9.80;99.90;;;;;;7385151;19;20026;-76
2024/03/01 07:05:10;;;;;;;11.40;2.83;;;9.80;99.90;;;;;;7383418;19;19910;-77
2024/03/01 07:07:39;;;;;;;14.48;2.78;;;9.90;99.90;;;;;;7384021;19;20006;-76
2024/03/01 07:10:11;;;;;;;6.22;2.42;;;9.90;99.90;;;;;;7406010;19;20025;-76
2024/03/01 07:12:39;;;;;;;11.02;3.05;;;10.00;99.90;;;;;;7382989;19;20009;-76
2024/03/01 07:15:10;;;;;;;10.00;2.42;;;10.00;99.90;;;;;;7383337;19;20007;-76
2024/03/01 07:17:38;;;;;;;11.23;2.28;;;9.90;99.90;;;;;;7383423;19;20030;-76
2024/03/01 07:20:08;;;;;;;19.17;3.55;;;9.90;99.90;;;;;;7382837;19;20373;-76
2024/03/01 07:22:37;;;;;;;10.45;2.47;;;9.90;99.90;;;;;;7386455;19;20069;-76
2024/03/01 07:25:07;;;;;;;13.70;2.75;;;10.00;99.90;;;;;;7402085;19;20011;-76
2024/03/01 07:27:38;;;;;;;10.05;2.53;;;10.10;99.90;;;;;;7383402;19;20551;-76
2024/03/01 07:30:09;;;;;;;11.73;2.75;;;10.10;99.90;;;;;;7383332;19;20365;-75
2024/03/01 07:32:38;;;;;;;13.33;2.23;;;10.00;99.90;;;;;;7386531;19;20010;-76
2024/03/01 07:35:08;;;;;;;14.65;2.88;;;10.10;99.90;;;;;;7383102;19;20251;-76
2024/03/01 07:37:36;;;;;;;10.02;2.65;;;10.00;99.90;;;;;;7404476;19;20018;-76
2024/03/01 07:40:06;;;;;;;7.10;1.38;;;10.20;99.90;;;;;;7382200;19;20208;-76
2024/03/01 07:42:34;;;;;;;10.50;1.92;;;10.30;99.90;;;;;;7385149;19;20285;-76
2024/03/01 07:45:08;;;;;;;13.15;2.28;;;10.40;99.90;;;;;;7384089;19;19999;-76
2024/03/01 07:47:37;;;;;;;20.88;2.38;;;10.50;99.90;;;;;;7382368;19;20007;-77
2024/03/01 07:50:07;;;;;;;15.15;2.10;;;10.50;99.90;;;;;;7382263;19;20332;-76
2024/03/01 07:52:35;;;;;;;19.33;2.22;;;10.30;99.90;;;;;;7401597;19;20011;-76
2024/03/01 07:55:04;;;;;;;10.90;1.73;;;10.30;99.90;;;;;;7381050;19;20275;-76
2024/03/01 07:57:33;;;;;;;8.90;1.70;;;10.20;99.90;;;;;;7381368;19;20016;-77
2024/03/01 08:00:06;;;;;;;11.80;1.83;;;10.30;99.90;;;;;;7383365;19;20002;-76
2024/03/01 08:02:35;;;;;;;14.88;1.92;;;10.40;99.90;;;;;;7383785;19;20011;-76
2024/03/01 08:05:03;;;;;;;8.52;2.10;;;10.40;99.90;;;;;;7380611;19;20421;-77
2024/03/01 08:07:32;;;;;;;14.68;2.20;;;10.50;99.90;;;;;;7403443;19;20066;-76
2024/03/01 08:10:01;;;;;;;11.93;2.40;;;10.60;99.90;;;;;;7381820;19;20058;-76
2024/03/01 08:12:30;;;;;;;11.20;1.95;;;10.60;99.90;;;;;;7381426;19;20486;-77
2024/03/01 08:14:58;;;;;;;13.25;2.30;;;10.50;99.90;;;;;;7382312;19;20014;-76
2024/03/01 08:17:31;;;;;;;11.30;2.22;;;10.40;99.90;;;;;;7384556;19;20010;-76
2024/03/01 08:19:59;;;;;;;8.57;2.22;;;10.40;99.90;;;;;;7384980;19;20011;-76
2024/03/01 08:22:28;;;;;;;15.68;2.55;;;10.40;99.90;;;;;;7400949;19;20345;-77
2024/03/01 08:24:59;;;;;;;19.90;2.80;;;10.40;99.90;;;;;;7379632;19;20120;-77
2024/03/01 08:27:29;;;;;;;15.70;2.20;;;10.50;99.90;;;;;;7382779;19;20370;-77
2024/03/01 08:30:01;;;;;;;15.65;2.63;;;10.60;99.90;;;;;;7380473;19;20010;-77
2024/03/01 08:32:35;;;;;;;14.13;2.22;;;10.60;99.90;;;;;;7382732;19;20003;-77
2024/03/01 08:35:04;;;;;;;19.95;2.92;;;10.70;99.90;;;;;;7397449;19;20110;-76
2024/03/01 08:37:34;;;;;;;18.70;2.53;;;10.20;99.90;;;;;;7424107;19;20007;-77
2024/03/01 08:40:05;;;;;;;13.18;2.03;;;10.30;99.90;;;;;;7402211;19;20003;-75
2024/03/01 08:42:35;;;;;;;;;;;10.40;99.90;;;;;;7400591;19;20010;-76
2024/03/01 08:45:05;;;;;;;10.52;2.22;;;10.50;99.90;;;;;;7398502;19;19922;-76
2024/03/01 08:47:39;;;;;;;9.70;2.13;;;10.60;99.90;;;;;;7396349;19;20103;-76
2024/03/01 08:50:35;;;;;;;11.75;2.42;;;10.60;99.90;;;;;;7385897;19;20007;-76
2024/03/01 08:53:03;;;;;;;10.85;2.13;;;10.70;99.90;;;;;;7380981;19;20090;-75
2024/03/01 08:55:41;;;;;;;12.32;2.45;;;10.50;99.90;;;;;;7402035;19;20358;-75
2024/03/01 08:58:21;;;;;;;9.73;2.28;;;10.60;99.90;;;;;;7380657;19;20066;-77
2024/03/01 09:00:53;;;;;;;15.25;2.40;;;10.60;99.90;;;;;;7381522;19;20046;-77
2024/03/01 09:03:29;;;;;;;12.93;2.15;;;10.70;99.90;;;;;;7383132;19;20111;-75
2024/03/01 09:06:00;;;;;;;11.25;2.42;;;10.70;99.90;;;;;;7377347;19;20011;-76
2024/03/01 09:08:33;;;;;;;15.43;2.30;;;10.80;99.90;;;;;;7380374;19;20010;-76
2024/03/01 09:11:02;;;;;;;24.15;2.85;;;10.80;99.90;;;;;;7383094;19;20453;-79
2024/03/01 09:13:33;;;;;;;13.98;2.35;;;10.60;99.90;;;;;;7401322;19;20280;-78
2024/03/01 09:16:02;;;;;;;14.02;2.47;;;10.60;99.90;;;;;;7379380;19;20018;-76
2024/03/01 09:18:57;;;;;;;11.50;2.28;;;10.60;99.90;;;;;;7379225;19;20029;-77
2024/03/01 09:21:46;;;;;;;21.15;2.63;;;10.60;99.90;;;;;;7378870;19;20283;-77
2024/03/01 09:24:17;;;;;;;18.38;2.20;;;10.60;99.90;;;;;;7379481;19;20007;-76
2024/03/01 09:26:46;;;;;;;14.32;2.80;;;10.70;99.90;;;;;;7382990;19;20095;-77
2024/03/01 09:29:40;;;;;;;15.60;2.13;;;10.80;99.90;;;;;;7377712;19;20006;-77
2024/03/01 09:32:09;;;;;;;10.88;1.92;;;10.70;99.90;;;;;;7378333;19;20370;-77
2024/03/01 09:34:42;;;;;;;20.08;2.35;;;10.90;99.90;;;;;;7402059;19;20021;-77
2024/03/01 09:37:15;;;;;;;17.55;2.88;;;10.80;99.90;;;;;;7378537;19;20006;-77
2024/03/01 09:39:44;;;;;;;14.70;2.65;;;10.80;99.90;;;;;;7378694;19;20002;-77
2024/03/01 09:42:33;;;;;;;15.77;2.05;;;10.80;99.90;;;;;;7379564;19;20094;-77
2024/03/01 09:45:25;;;;;;;13.43;2.35;;;10.60;99.90;;;;;;7379957;19;20003;-77
2024/03/01 09:48:08;;;;;;;16.13;2.05;;;10.60;99.90;;;;;;7377757;19;20370;-76
2024/03/01 09:50:54;;;;;;;16.02;2.35;;;10.60;99.90;;;;;;7379677;19;20023;-77
2024/03/01 09:53:35;;;;;;;13.10;2.22;;;10.70;99.90;;;;;;7377441;19;20062;-77
2024/03/01 09:56:14;;;;;;;13.77;2.70;;;10.60;99.90;;;;;;7378776;19;20071;-76
2024/03/01 09:58:51;;;;;;;11.82;2.45;;;10.70;99.90;;;;;;7402182;19;20702;-76
2024/03/01 10:01:24;;;;;;;17.05;2.40;;;10.80;99.90;;;;;;7382582;19;20349;-76
2024/03/01 10:04:09;;;;;;;19.13;2.53;;;10.80;99.90;;;;;;7382166;19;20082;-77
2024/03/01 10:07:03;;;;;;;16.48;2.78;;;10.80;99.90;;;;;;7377810;19;20021;-76
2024/03/01 10:09:55;;;;;;;9.10;2.30;;;10.90;99.90;;;;;;7377533;19;20584;-78
2024/03/01 10:12:36;;;;;;;15.23;2.58;;;11.00;99.90;;;;;;7379051;19;19999;-77
2024/03/01 10:15:10;;;;;;;14.75;2.63;;;11.10;99.90;;;;;;7378126;19;20002;-78
2024/03/01 10:17:47;;;;;;;8.65;2.42;;;11.10;99.90;;;;;;7378679;19;20010;-77
2024/03/01 10:20:27;;;;;;;21.75;2.50;;;11.20;99.90;;;;;;7379910;19;20412;-77
2024/03/01 10:23:15;;;;;;;12.68;2.60;;;11.10;99.90;;;;;;7377510;19;20011;-77
2024/03/01 10:25:56;;;;;;;29.10;3.03;;;11.20;99.90;;;;;;7398147;19;20020;-77
2024/03/01 10:28:40;;;;;;;11.23;2.08;;;10.90;99.90;;;;;;7382386;19;20046;-77
2024/03/01 10:31:18;;;;;;;10.98;2.83;;;10.90;99.90;;;;;;7378581;19;20015;-78
2024/03/01 10:33:55;;;;;;;15.85;2.53;;;11.20;99.90;;;;;;7376963;19;20027;-77
2024/03/01 10:36:34;;;;;;;15.88;2.42;;;11.30;99.90;;;;;;7378178;19;20305;-77
2024/03/01 10:39:16;;;;;;;12.70;2.17;;;11.40;99.90;;;;;;7379043;19;20297;-76
2024/03/01 10:41:58;;;;;;;15.52;2.85;;;11.10;99.90;;;;;;7378506;19;20007;-77
2024/03/01 10:44:42;;;;;;;10.18;2.10;;;11.30;99.90;;;;;;7380823;19;20019;-77
2024/03/01 10:47:20;;;;;;;14.15;2.13;;;11.30;99.90;;;;;;7377081;19;19999;-77
2024/03/01 10:50:05;;;;;;;6.43;1.90;;;11.30;99.90;;;;;;7377544;19;20352;-77
2024/03/01 10:52:38;;;;;;;14.80;2.88;;;11.40;99.90;;;;;;7402254;19;20030;-76
2024/03/01 10:55:14;;;;;;;10.45;2.17;;;10.90;99.90;;;;;;7376573;19;20066;-77
2024/03/01 10:57:52;;;;;;;9.68;2.10;;;11.10;99.90;;;;;;7377132;19;20016;-77
2024/03/01 11:00:26;;;;;;;16.20;2.60;;;11.30;99.90;;;;;;7377390;19;20405;-76
2024/03/01 11:03:18;;;;;;;10.60;2.72;;;11.00;99.90;;;;;;7378400;19;20426;-77
2024/03/01 11:06:04;;;;;;;12.63;2.20;;;11.00;99.90;;;;;;7376375;19;20003;-76
2024/03/01 11:08:44;;;;;;;12.15;2.42;;;10.90;99.90;;;;;;7379056;19;20252;-78
2024/03/01 11:11:23;;;;;;;9.68;1.90;;;11.00;99.90;;;;;;7376425;19;20701;-77
2024/03/01 11:13:55;;;;;;;23.17;2.30;;;11.40;99.90;;;;;;7376945;19;20018;-77
2024/03/01 11:16:30;;;;;;;12.98;2.00;;;11.50;99.90;;;;;;7401325;19;20019;-77
2024/03/01 11:19:02;;;;;;;14.88;2.30;;;11.50;99.90;;;;;;7376685;19;20013;-77
2024/03/01 11:21:38;;;;;;;15.77;2.00;;;11.40;99.90;;;;;;7375644;19;20066;-77
2024/03/01 11:24:17;;;;;;;8.60;1.85;;;11.50;99.90;;;;;;7376395;19;20011;-77
2024/03/01 11:26:51;;;;;;;8.93;1.92;;;11.60;99.90;;;;;;7377103;19;20323;-78
2024/03/01 11:29:26;;;;;;;15.95;2.70;;;11.50;99.90;;;;;;7379637;19;20074;-78
2024/03/01 11:31:57;;;;;;;9.43;2.33;;;11.60;99.90;;;;;;7383919;19;20264;-76
2024/03/01 11:34:36;;;;;;;11.20;1.63;;;11.70;99.90;;;;;;7407299;19;20074;-77
2024/03/01 11:37:16;;;;;;;9.82;2.10;;;11.90;99.90;;;;;;7382250;19;20027;-76
2024/03/01 11:39:53;;;;;;;20.33;2.22;;;11.80;99.90;;;;;;7384466;19;20017;-77
2024/03/01 11:42:38;;;;;;;15.45;2.75;;;11.90;99.90;;;;;;7384376;19;20014;-78
2024/03/01 11:45:16;;;;;;;9.38;2.42;;;12.20;99.90;;;;;;7383428;19;20374;-77
2024/03/01 11:47:57;;;;;;;5.03;1.73;;;12.20;99.90;;;;;;7381627;19;20138;-78
2024/03/01 11:50:41;;;;;;;19.42;2.65;;;12.30;99.90;;;;;;7382205;19;20030;-77
2024/03/01 11:53:27;;;;;;;16.02;2.72;;;12.40;99.90;;;;;;7383538;19;20018;-77
2024/03/01 11:56:21;;;;;;;17.85;2.45;;;12.50;99.90;;;;;;7383922;19;20015;-76
2024/03/01 11:58:58;;;;;;;10.07;2.10;;;12.60;99.90;;;;;;7404219;19;20014;-77
2024/03/01 12:01:38;;;;;;;8.30;2.35;;;12.70;99.90;;;;;;7382482;19;20040;-76
2024/03/01 12:04:25;;;;;;;9.70;1.75;;;12.80;99.90;;;;;;7384425;19;20007;-77
2024/03/01 12:07:19;;;;;;;7.88;2.00;;;12.80;99.90;;;;;;7382769;19;20015;-77
2024/03/01 12:10:01;;;;;;;6.13;1.15;;;12.90;99.90;;;;;;7382981;19;20010;-76
2024/03/01 12:12:40;;;;;;;5.50;1.40;;;12.80;99.90;;;;;;7383913;19;20002;-75
2024/03/01 12:15:16;;;;;;;12.20;1.63;;;12.60;99.90;;;;;;7381956;19;20006;-75
2024/03/01 12:17:56;;;;;;;4.20;1.42;;;12.60;99.90;;;;;;7383660;19;20078;-76
2024/03/01 12:20:25;;;;;;;8.85;1.55;;;12.50;99.90;;;;;;7381862;19;20006;-75
2024/03/01 12:23:06;;;;;;;5.82;1.77;;;12.20;99.90;;;;;;7406653;19;20014;-75
2024/03/01 12:25:37;;;;;;;8.80;1.70;;;12.30;99.90;;;;;;7379919;19;20278;-74
2024/03/01 12:28:32;;;;;;;8.85;1.33;;;12.40;99.90;;;;;;7383167;19;20322;-78
2024/03/01 12:31:14;;;;;;;52.17;21.42;;;12.50;99.90;;;;;;7382723;19;20010;-78
2024/03/01 12:34:13;;;;;;;10.20;4.55;;;12.50;99.90;;;;;;7386642;19;20011;-80
2024/03/01 12:36:51;;;;;;;6.38;2.78;;;12.50;99.90;;;;;;7382726;19;20219;-77
2024/03/01 12:39:24;;;;;;;7.75;3.13;;;12.50;99.90;;;;;;7385263;19;20028;-77
2024/03/01 12:42:06;;;;;;;2.05;0.82;;;12.60;99.90;;;;;;7386817;19;20380;-78
2024/03/01 12:47:59;;;;;;;4.93;0.90;;;12.20;99.90;;;;;;7380703;19;19915;-81
2024/03/01 12:50:36;;;;;;;5.50;0.85;;;12.00;99.90;;;;;;7406581;19;20581;-78
2024/03/01 12:53:20;;;;;;;3.28;0.80;;;12.30;99.90;;;;;;7386375;19;20014;-78
2024/03/01 12:55:59;;;;;;;3.17;0.73;;;12.30;99.90;;;;;;7401438;19;20362;-76
2024/03/01 12:58:37;;;;;;;3.05;0.90;;;12.30;99.90;;;;;;7380788;19;20006;-76
2024/03/01 13:01:20;;;;;;;3.72;0.75;;;12.50;99.90;;;;;;7380107;19;20007;-76
2024/03/01 13:04:01;;;;;;;2.85;0.80;;;12.60;99.90;;;;;;7380118;19;20010;-76
2024/03/01 13:06:29;;;;;;;1.45;0.60;;;12.70;99.90;;;;;;7378726;19;20078;-77
2024/03/01 13:09:05;;;;;;;1.30;0.52;;;12.80;99.90;;;;;;7381797;19;20020;-73
2024/03/01 13:11:36;;;;;;;3.63;1.00;;;12.90;99.90;;;;;;7379348;19;20027;-73
2024/03/01 13:14:29;;;;;;;1.23;0.68;;;12.90;99.90;;;;;;7379673;19;20003;-75
2024/03/01 13:17:08;;;;;;;2.33;0.65;;;13.00;99.90;;;;;;7401666;19;20067;-75